Cold Wind — HOYR — position and weather

sailwx.info

Track history (hours):
 
Tides and Currents Weather Stations Pressure Air Temp Water Temp Dewpoint Dewpoint Depression Visibility Wind Speed Wind Dir Waves Ship Positions

Cold Wind

Last reported at 2018-Jul-22 04:31 UTC. Time now 2018-Jul-23 17:17 UTC.
Position N 34°39' E 139°05'.

Length 98 m; draft 5.1 m.

Type: Tanker. MMSI: 370903000.

Date/timePositionNaut miles runAvg speedWind from/ knotsBaromVisibWave heightAir tempDewpointWater temp
2018-Jul-22 04:31N 34°39' E 139°05'010.0
2018-Jul-22 04:30N 34°39' E 139°05'19 9.8
2018-Jul-22 02:30N 34°53' E 139°21'5 9.2
2018-Jul-22 02:00N 34°56' E 139°26'5 9.5
2018-Jul-22 01:30N 34°59' E 139°31'510.2
2018-Jul-22 01:00N 35°02' E 139°35'611.1
2018-Jul-22 00:30N 35°05' E 139°41'611.2
2018-Jul-22 00:00N 35°10' E 139°45'611.4
2018-Jul-21 23:30N 35°15' E 139°46'611.6
2018-Jul-21 23:00N 35°20' E 139°42'611.3
2018-Jul-21 22:30N 35°26' E 139°45'5 9.7
2018-Jul-21 22:00N 35°30' E 139°48'2 0.1
2018-Jul-21 05:03N 35°31' E 139°46'0 0.3
2018-Jul-21 05:01N 35°31' E 139°46'1 2.4
2018-Jul-21 04:31N 35°30' E 139°45'3 6.2
2018-Jul-21 04:01N 35°29' E 139°42'2 3.5
2018-Jul-21 03:30N 35°28' E 139°44'0 0.0
2018-Jul-21 03:00N 35°28' E 139°44'0 0.0
2018-Jul-21 02:30N 35°28' E 139°44'0 0.0
2018-Jul-21 02:00N 35°28' E 139°44'0 0.0
2018-Jul-21 01:30N 35°28' E 139°44'0 0.0
2018-Jul-21 01:00N 35°28' E 139°44'0 0.0
2018-Jul-21 00:30N 35°28' E 139°44'0 0.1
2018-Jul-21 00:00N 35°28' E 139°44'0 0.0
2018-Jul-20 23:30N 35°28' E 139°44'0 0.1
2018-Jul-20 23:00N 35°28' E 139°44'0 0.0
2018-Jul-20 22:30N 35°28' E 139°44'0 0.1
2018-Jul-20 22:00N 35°28' E 139°44'0 0.0
2018-Jul-20 21:30N 35°28' E 139°44'0 0.0
2018-Jul-20 21:00N 35°28' E 139°44'0 0.1
2018-Jul-20 20:27N 35°28' E 139°44'0 0.0
2018-Jul-20 20:00N 35°28' E 139°44'0 0.0
2018-Jul-20 19:30N 35°28' E 139°44'0 0.0
2018-Jul-20 19:00N 35°28' E 139°44'0 0.1
2018-Jul-20 18:30N 35°28' E 139°44'0 0.1
2018-Jul-20 18:00N 35°28' E 139°44'0 0.1
2018-Jul-20 17:30N 35°28' E 139°44'0 0.1
2018-Jul-20 17:00N 35°28' E 139°44'0 0.0
2018-Jul-20 16:30N 35°28' E 139°44'0 0.0
2018-Jul-20 16:00N 35°28' E 139°44'0 0.1
2018-Jul-20 15:30N 35°28' E 139°44'0 0.0
2018-Jul-20 15:00N 35°28' E 139°44'0 0.0
2018-Jul-20 14:30N 35°28' E 139°44'0 0.0
2018-Jul-20 14:00N 35°28' E 139°44'0 0.0
2018-Jul-20 13:30N 35°28' E 139°44'0 0.0
2018-Jul-20 13:00N 35°28' E 139°44'0 0.0
2018-Jul-20 12:30N 35°28' E 139°44'0 0.0
2018-Jul-20 12:00N 35°28' E 139°44'0 0.0
2018-Jul-20 11:30N 35°28' E 139°44'0 0.0
2018-Jul-20 11:00N 35°28' E 139°44'0 0.0
2018-Jul-20 10:30N 35°28' E 139°44'0 0.0
2018-Jul-20 10:00N 35°28' E 139°44'0 0.0
2018-Jul-20 09:27N 35°28' E 139°44'0 0.1
2018-Jul-20 09:00N 35°28' E 139°44'0 0.0
2018-Jul-20 08:27N 35°28' E 139°44'0 0.0
2018-Jul-20 08:00N 35°28' E 139°44'0 0.0
2018-Jul-20 07:30N 35°28' E 139°44'0 0.0
2018-Jul-20 07:00N 35°28' E 139°44'0 0.0
2018-Jul-20 06:30N 35°28' E 139°44'1 2.1
2018-Jul-20 06:01N 35°27' E 139°45'5 9.3
2018-Jul-20 05:31N 35°23' E 139°46'510.6
2018-Jul-20 05:00N 35°17' E 139°45'611.1
2018-Jul-20 04:31N 35°12' E 139°47'611.7
2018-Jul-20 04:00N 35°06' E 139°45'612.8
2018-Jul-20 03:30N 35°02' E 139°40'714.1
2018-Jul-20 03:00N 34°58' E 139°33'  
2018-Jul-15 03:38N 34°45' E 139°11'8 9.7
2018-Jul-15 02:46N 34°51' E 139°18'3 8.2
2018-Jul-15 02:25N 34°53' E 139°21'4 8.4
2018-Jul-15 01:57N 34°55' E 139°24'4 9.5
2018-Jul-15 01:30N 34°58' E 139°29'5 9.9
2018-Jul-15 01:00N 35°01' E 139°34'510.4
2018-Jul-15 00:30N 35°04' E 139°39'611.2
2018-Jul-15 00:00N 35°07' E 139°44'612.1
2018-Jul-14 23:31N 35°13' E 139°46'612.3
2018-Jul-14 23:00N 35°19' E 139°43'611.8
2018-Jul-14 22:30N 35°25' E 139°43'611.9
2018-Jul-14 22:00N 35°29' E 139°48'2 2.2
2018-Jul-14 21:08N 35°31' E 139°46'0 0.0
2018-Jul-14 20:59N 35°31' E 139°46'0 0.0
2018-Jul-14 20:26N 35°31' E 139°46'0 0.0
2018-Jul-14 19:56N 35°31' E 139°46'0 0.0
2018-Jul-14 19:29N 35°31' E 139°46'0 0.0
2018-Jul-14 18:59N 35°31' E 139°46'0 0.0
2018-Jul-14 18:29N 35°31' E 139°46'0 0.0
2018-Jul-14 17:59N 35°31' E 139°46'0 0.0
2018-Jul-14 17:26N 35°31' E 139°46'0 0.0
2018-Jul-14 16:53N 35°31' E 139°46'0 0.0
2018-Jul-14 16:17N 35°31' E 139°46'0 0.0
2018-Jul-14 15:53N 35°31' E 139°46'0 0.0
2018-Jul-14 15:23N 35°31' E 139°46'0 0.0
2018-Jul-14 14:59N 35°31' E 139°46'0 0.0
2018-Jul-14 13:56N 35°31' E 139°46'0 0.0
2018-Jul-14 13:29N 35°31' E 139°46'0 0.0
2018-Jul-14 12:59N 35°31' E 139°46'0 0.0
2018-Jul-14 12:23N 35°31' E 139°46'0 0.0
2018-Jul-14 11:59N 35°31' E 139°46'0 0.0
2018-Jul-14 11:29N 35°31' E 139°46'0 0.0
2018-Jul-14 10:56N 35°31' E 139°46'0 0.0
2018-Jul-14 10:29N 35°31' E 139°46'0 0.0
2018-Jul-14 09:59N 35°31' E 139°46'0 0.0
2018-Jul-14 09:29N 35°31' E 139°46'0 0.0
2018-Jul-14 08:47N 35°31' E 139°46'0 0.0
2018-Jul-14 08:17N 35°31' E 139°46'0 0.0
2018-Jul-14 07:53N 35°31' E 139°46'0 0.0
2018-Jul-14 07:26N 35°31' E 139°46'0 0.0
2018-Jul-14 06:59N 35°31' E 139°46'0 0.0
2018-Jul-14 06:26N 35°31' E 139°46'0 0.0
2018-Jul-14 05:59N 35°31' E 139°46'0 0.0
2018-Jul-14 05:20N 35°31' E 139°46'0 0.0
2018-Jul-14 04:59N 35°31' E 139°46'0 0.2
2018-Jul-14 04:30N 35°31' E 139°46'1 2.6
2018-Jul-14 04:01N 35°30' E 139°45'3 5.5
2018-Jul-14 03:30N 35°29' E 139°42'2 3.9
2018-Jul-14 03:01N 35°28' E 139°44'0 0.4
2018-Jul-14 02:29N 35°28' E 139°44'0 0.0
2018-Jul-14 01:59N 35°28' E 139°44'0 0.1
2018-Jul-14 01:26N 35°28' E 139°44'0 0.0
2018-Jul-14 00:59N 35°28' E 139°44'0 0.0
2018-Jul-14 00:29N 35°28' E 139°44'0 0.0
2018-Jul-13 23:50N 35°28' E 139°44'0 0.2
2018-Jul-13 23:31N 35°28' E 139°44'4 7.2
2018-Jul-13 23:01N 35°25' E 139°46'611.3
2018-Jul-13 22:31N 35°19' E 139°44'5 9.8
2018-Jul-13 22:00N 35°15' E 139°47'5 9.6
2018-Jul-13 21:30N 35°10' E 139°47'5 9.5
2018-Jul-13 21:00N 35°06' E 139°45'4 8.3
2018-Jul-13 20:30N 35°02' E 139°43'510.4
2018-Jul-13 20:00N 34°57' E 139°40'510.7
2018-Jul-13 19:29N 34°54' E 139°35'611.8
2018-Jul-13 18:57N 34°52' E 139°27'3313.8
2018-Jul-13 16:35N 34°33' E 138°55'114.2
2018-Jul-13 16:30N 34°33' E 138°53'714.1
2018-Jul-13 16:00N 34°32' E 138°45'  
Track history (hours):
 
Tides and Currents Weather Stations Pressure Air Temp Water Temp Dewpoint Dewpoint Depression Visibility Wind Speed Wind Dir Waves Ship Positions

Cold Wind

Last reported at 2018-Jul-22 04:31 UTC. Time now 2018-Jul-23 17:17 UTC.
Position N 34°39' E 139°05'.

Length 98 m; draft 5.1 m.

Type: Tanker. MMSI: 370903000.

Date/timePositionNaut miles runAvg speedWind from/ knotsBaromVisibWave heightAir tempDewpointWater temp
2018-Jul-22 04:31N 34°39' E 139°05'010.0
2018-Jul-22 04:30N 34°39' E 139°05'19 9.8
2018-Jul-22 02:30N 34°53' E 139°21'5 9.2
2018-Jul-22 02:00N 34°56' E 139°26'5 9.5
2018-Jul-22 01:30N 34°59' E 139°31'510.2
2018-Jul-22 01:00N 35°02' E 139°35'611.1
2018-Jul-22 00:30N 35°05' E 139°41'611.2
2018-Jul-22 00:00N 35°10' E 139°45'611.4
2018-Jul-21 23:30N 35°15' E 139°46'611.6
2018-Jul-21 23:00N 35°20' E 139°42'611.3
2018-Jul-21 22:30N 35°26' E 139°45'5 9.7
2018-Jul-21 22:00N 35°30' E 139°48'2 0.1
2018-Jul-21 05:03N 35°31' E 139°46'0 0.3
2018-Jul-21 05:01N 35°31' E 139°46'1 2.4
2018-Jul-21 04:31N 35°30' E 139°45'3 6.2
2018-Jul-21 04:01N 35°29' E 139°42'2 3.5
2018-Jul-21 03:30N 35°28' E 139°44'0 0.0
2018-Jul-21 03:00N 35°28' E 139°44'0 0.0
2018-Jul-21 02:30N 35°28' E 139°44'0 0.0
2018-Jul-21 02:00N 35°28' E 139°44'0 0.0
2018-Jul-21 01:30N 35°28' E 139°44'0 0.0
2018-Jul-21 01:00N 35°28' E 139°44'0 0.0
2018-Jul-21 00:30N 35°28' E 139°44'0 0.1
2018-Jul-21 00:00N 35°28' E 139°44'0 0.0
2018-Jul-20 23:30N 35°28' E 139°44'0 0.1
2018-Jul-20 23:00N 35°28' E 139°44'0 0.0
2018-Jul-20 22:30N 35°28' E 139°44'0 0.1
2018-Jul-20 22:00N 35°28' E 139°44'0 0.0
2018-Jul-20 21:30N 35°28' E 139°44'0 0.0
2018-Jul-20 21:00N 35°28' E 139°44'0 0.1
2018-Jul-20 20:27N 35°28' E 139°44'0 0.0
2018-Jul-20 20:00N 35°28' E 139°44'0 0.0
2018-Jul-20 19:30N 35°28' E 139°44'0 0.0
2018-Jul-20 19:00N 35°28' E 139°44'0 0.1
2018-Jul-20 18:30N 35°28' E 139°44'0 0.1
2018-Jul-20 18:00N 35°28' E 139°44'0 0.1
2018-Jul-20 17:30N 35°28' E 139°44'0 0.1
2018-Jul-20 17:00N 35°28' E 139°44'0 0.0
2018-Jul-20 16:30N 35°28' E 139°44'0 0.0
2018-Jul-20 16:00N 35°28' E 139°44'0 0.1
2018-Jul-20 15:30N 35°28' E 139°44'0 0.0
2018-Jul-20 15:00N 35°28' E 139°44'0 0.0
2018-Jul-20 14:30N 35°28' E 139°44'0 0.0
2018-Jul-20 14:00N 35°28' E 139°44'0 0.0
2018-Jul-20 13:30N 35°28' E 139°44'0 0.0
2018-Jul-20 13:00N 35°28' E 139°44'0 0.0
2018-Jul-20 12:30N 35°28' E 139°44'0 0.0
2018-Jul-20 12:00N 35°28' E 139°44'0 0.0
2018-Jul-20 11:30N 35°28' E 139°44'0 0.0
2018-Jul-20 11:00N 35°28' E 139°44'0 0.0
2018-Jul-20 10:30N 35°28' E 139°44'0 0.0
2018-Jul-20 10:00N 35°28' E 139°44'0 0.0
2018-Jul-20 09:27N 35°28' E 139°44'0 0.1
2018-Jul-20 09:00N 35°28' E 139°44'0 0.0
2018-Jul-20 08:27N 35°28' E 139°44'0 0.0
2018-Jul-20 08:00N 35°28' E 139°44'0 0.0
2018-Jul-20 07:30N 35°28' E 139°44'0 0.0
2018-Jul-20 07:00N 35°28' E 139°44'0 0.0
2018-Jul-20 06:30N 35°28' E 139°44'1 2.1
2018-Jul-20 06:01N 35°27' E 139°45'5 9.3
2018-Jul-20 05:31N 35°23' E 139°46'510.6
2018-Jul-20 05:00N 35°17' E 139°45'611.1
2018-Jul-20 04:31N 35°12' E 139°47'611.7
2018-Jul-20 04:00N 35°06' E 139°45'612.8
2018-Jul-20 03:30N 35°02' E 139°40'714.1
2018-Jul-20 03:00N 34°58' E 139°33'  
2018-Jul-15 03:38N 34°45' E 139°11'8 9.7
2018-Jul-15 02:46N 34°51' E 139°18'3 8.2
2018-Jul-15 02:25N 34°53' E 139°21'4 8.4
2018-Jul-15 01:57N 34°55' E 139°24'4 9.5
2018-Jul-15 01:30N 34°58' E 139°29'5 9.9
2018-Jul-15 01:00N 35°01' E 139°34'510.4
2018-Jul-15 00:30N 35°04' E 139°39'611.2
2018-Jul-15 00:00N 35°07' E 139°44'612.1
2018-Jul-14 23:31N 35°13' E 139°46'612.3
2018-Jul-14 23:00N 35°19' E 139°43'611.8
2018-Jul-14 22:30N 35°25' E 139°43'611.9
2018-Jul-14 22:00N 35°29' E 139°48'2 2.2
2018-Jul-14 21:08N 35°31' E 139°46'0 0.0
2018-Jul-14 20:59N 35°31' E 139°46'0 0.0
2018-Jul-14 20:26N 35°31' E 139°46'0 0.0
2018-Jul-14 19:56N 35°31' E 139°46'0 0.0
2018-Jul-14 19:29N 35°31' E 139°46'0 0.0
2018-Jul-14 18:59N 35°31' E 139°46'0 0.0
2018-Jul-14 18:29N 35°31' E 139°46'0 0.0
2018-Jul-14 17:59N 35°31' E 139°46'0 0.0
2018-Jul-14 17:26N 35°31' E 139°46'0 0.0
2018-Jul-14 16:53N 35°31' E 139°46'0 0.0
2018-Jul-14 16:17N 35°31' E 139°46'0 0.0
2018-Jul-14 15:53N 35°31' E 139°46'0 0.0
2018-Jul-14 15:23N 35°31' E 139°46'0 0.0
2018-Jul-14 14:59N 35°31' E 139°46'0 0.0
2018-Jul-14 13:56N 35°31' E 139°46'0 0.0
2018-Jul-14 13:29N 35°31' E 139°46'0 0.0
2018-Jul-14 12:59N 35°31' E 139°46'0 0.0
2018-Jul-14 12:23N 35°31' E 139°46'0 0.0
2018-Jul-14 11:59N 35°31' E 139°46'0 0.0
2018-Jul-14 11:29N 35°31' E 139°46'0 0.0
2018-Jul-14 10:56N 35°31' E 139°46'0 0.0
2018-Jul-14 10:29N 35°31' E 139°46'0 0.0
2018-Jul-14 09:59N 35°31' E 139°46'0 0.0
2018-Jul-14 09:29N 35°31' E 139°46'0 0.0
2018-Jul-14 08:47N 35°31' E 139°46'0 0.0
2018-Jul-14 08:17N 35°31' E 139°46'0 0.0
2018-Jul-14 07:53N 35°31' E 139°46'0 0.0
2018-Jul-14 07:26N 35°31' E 139°46'0 0.0
2018-Jul-14 06:59N 35°31' E 139°46'0 0.0
2018-Jul-14 06:26N 35°31' E 139°46'0 0.0
2018-Jul-14 05:59N 35°31' E 139°46'0 0.0
2018-Jul-14 05:20N 35°31' E 139°46'0 0.0
2018-Jul-14 04:59N 35°31' E 139°46'0 0.2
2018-Jul-14 04:30N 35°31' E 139°46'1 2.6
2018-Jul-14 04:01N 35°30' E 139°45'3 5.5
2018-Jul-14 03:30N 35°29' E 139°42'2 3.9
2018-Jul-14 03:01N 35°28' E 139°44'0 0.4
2018-Jul-14 02:29N 35°28' E 139°44'0 0.0
2018-Jul-14 01:59N 35°28' E 139°44'0 0.1
2018-Jul-14 01:26N 35°28' E 139°44'0 0.0
2018-Jul-14 00:59N 35°28' E 139°44'0 0.0
2018-Jul-14 00:29N 35°28' E 139°44'0 0.0
2018-Jul-13 23:50N 35°28' E 139°44'0 0.2
2018-Jul-13 23:31N 35°28' E 139°44'4 7.2
2018-Jul-13 23:01N 35°25' E 139°46'611.3
2018-Jul-13 22:31N 35°19' E 139°44'5 9.8
2018-Jul-13 22:00N 35°15' E 139°47'5 9.6
2018-Jul-13 21:30N 35°10' E 139°47'5 9.5
2018-Jul-13 21:00N 35°06' E 139°45'4 8.3
2018-Jul-13 20:30N 35°02' E 139°43'510.4
2018-Jul-13 20:00N 34°57' E 139°40'510.7
2018-Jul-13 19:29N 34°54' E 139°35'611.8
2018-Jul-13 18:57N 34°52' E 139°27'3313.8
2018-Jul-13 16:35N 34°33' E 138°55'114.2
2018-Jul-13 16:30N 34°33' E 138°53'714.1
2018-Jul-13 16:00N 34°32' E 138°45'  

Dump ship's entire track history